Terminal Aerodrome Forecast
Issued by NWS Caribou, ME

Home | Current Version | Previous Version | Text Only | Print | Product List | Glossary On
Versions: 1 2 3 4 5 6 7 8 9 10 11 12 13 14 15 16 17 18 19 20 21 22
000
FTUS41 KCAR 271149
TAFBGR
TAF
KBGR 271149Z 2712/2812 35017G25KT 1SM -SN VV010
     FM271300 35015G25KT 4SM -SN OVC030
     FM271700 33013G20KT P6SM BKN030
     FM271900 33006KT P6SM SCT035=

USA.gov is the U.S. government's official web portal to all federal, state and local government web resources and services.